createdAt,value
2022-07-28T00:00:28.949Z,15.30
2022-07-28T00:02:57.363Z,15.20
2022-07-28T00:05:25.755Z,15.20
2022-07-28T00:07:54.264Z,15.30
2022-07-28T00:10:22.548Z,15.30
2022-07-28T00:12:50.944Z,15.40
2022-07-28T00:15:19.394Z,15.40
2022-07-28T00:17:48.995Z,15.40
2022-07-28T00:20:17.314Z,15.50
2022-07-28T00:22:46.807Z,15.50
2022-07-28T00:25:15.298Z,15.50
2022-07-28T00:27:43.692Z,15.50
2022-07-28T00:30:13.540Z,15.50
2022-07-28T00:32:41.846Z,15.50
2022-07-28T00:35:12.447Z,15.50
2022-07-28T00:37:43.376Z,15.50
2022-07-28T00:40:13.691Z,15.50
2022-07-28T00:42:41.996Z,15.40
2022-07-28T00:45:11.716Z,15.40
2022-07-28T00:47:39.957Z,15.30
2022-07-28T00:50:09.359Z,15.30
2022-07-28T00:52:39.153Z,15.10
2022-07-28T00:55:08.530Z,15.30
2022-07-28T00:57:36.848Z,15.30
2022-07-28T01:00:06.829Z,15.30
2022-07-28T01:02:35.273Z,15.40
2022-07-28T01:05:04.396Z,15.40
2022-07-28T01:07:43.999Z,15.40
2022-07-28T01:10:21.389Z,15.40
2022-07-28T01:12:57.755Z,15.30
2022-07-28T01:15:31.788Z,15.30
2022-07-28T01:18:07.007Z,15.30
2022-07-28T01:20:41.090Z,15.30
2022-07-28T01:23:49.710Z,15.30
2022-07-28T01:26:38.234Z,15.20
2022-07-28T01:29:29.967Z,15.20
2022-07-28T01:32:05.339Z,15.20
2022-07-28T01:34:40.076Z,15.20
2022-07-28T01:37:14.715Z,15.20
2022-07-28T01:39:44.795Z,15.20
2022-07-28T01:42:17.741Z,15.20
2022-07-28T01:44:50.092Z,15.10
2022-07-28T01:47:21.489Z,15.20
2022-07-28T01:49:52.623Z,15.30
2022-07-28T01:52:22.901Z,15.30
2022-07-28T01:54:53.335Z,15.40
2022-07-28T01:57:22.483Z,15.30
2022-07-28T01:59:52.320Z,15.40
2022-07-28T02:02:23.137Z,15.30
2022-07-28T02:04:52.748Z,15.40
2022-07-28T02:07:23.750Z,15.30
2022-07-28T02:09:53.131Z,15.40
2022-07-28T02:12:23.046Z,15.40
2022-07-28T02:14:52.870Z,15.40
2022-07-28T02:17:28.634Z,15.30
2022-07-28T02:19:58.739Z,15.40
2022-07-28T02:22:28.914Z,15.40
2022-07-28T02:24:57.958Z,15.30
2022-07-28T02:27:38.705Z,15.20
2022-07-28T02:30:12.907Z,15.20
2022-07-28T02:32:50.947Z,15.20
2022-07-28T02:35:29.130Z,15.20
2022-07-28T02:38:03.833Z,15.10
2022-07-28T02:40:36.890Z,15.00
2022-07-28T02:43:10.167Z,15.10
2022-07-28T02:45:43.001Z,15.00
2022-07-28T02:48:20.462Z,15.00
2022-07-28T02:50:49.797Z,14.80
2022-07-28T02:53:18.717Z,14.90
2022-07-28T02:55:50.071Z,14.90
2022-07-28T02:58:22.112Z,14.80
2022-07-28T03:00:52.507Z,14.70
2022-07-28T03:03:24.107Z,14.60
2022-07-28T03:05:53.411Z,14.60
2022-07-28T03:08:21.913Z,14.50
2022-07-28T03:10:50.200Z,14.50
2022-07-28T03:13:18.524Z,14.40
2022-07-28T03:15:46.924Z,14.40
2022-07-28T03:18:15.213Z,14.40
2022-07-28T03:20:45.080Z,14.40
2022-07-28T03:23:13.779Z,14.50
2022-07-28T03:25:46.474Z,14.30
2022-07-28T03:28:19.706Z,14.40
2022-07-28T03:30:57.190Z,14.40
2022-07-28T03:33:25.906Z,14.50
2022-07-28T03:35:59.586Z,14.50
2022-07-28T03:38:35.340Z,14.40
2022-07-28T03:42:09.239Z,14.40
2022-07-28T03:44:39.903Z,14.40
2022-07-28T03:47:09.127Z,14.20
2022-07-28T03:49:37.438Z,14.30
2022-07-28T03:52:07.561Z,14.30
2022-07-28T03:54:35.878Z,14.40
2022-07-28T03:57:04.282Z,14.10
2022-07-28T03:59:32.631Z,14.20
2022-07-28T04:02:01.165Z,14.10
2022-07-28T04:04:30.196Z,14.00
2022-07-28T04:06:58.870Z,14.10
2022-07-28T04:09:28.682Z,14.10
2022-07-28T04:11:57.035Z,14.10
2022-07-28T04:14:25.656Z,14.10
2022-07-28T04:16:54.193Z,14.10
2022-07-28T04:19:22.613Z,14.10
2022-07-28T04:21:50.906Z,14.10
2022-07-28T04:24:19.750Z,14.20
2022-07-28T04:26:49.620Z,14.20
2022-07-28T04:29:23.335Z,14.20
2022-07-28T04:31:55.776Z,14.30
2022-07-28T04:34:24.986Z,14.30
2022-07-28T04:36:53.268Z,14.30
2022-07-28T04:39:21.587Z,14.30
2022-07-28T04:41:52.280Z,14.40
2022-07-28T04:44:20.551Z,14.40
2022-07-28T04:46:48.914Z,14.30
2022-07-28T04:49:17.606Z,14.40
2022-07-28T04:51:50.640Z,14.40
2022-07-28T04:54:23.098Z,14.40
2022-07-28T04:56:55.853Z,14.50
2022-07-28T04:59:24.344Z,14.60
2022-07-28T05:01:54.012Z,14.70
2022-07-28T05:04:22.354Z,15.00
2022-07-28T05:06:51.136Z,15.20
2022-07-28T05:09:19.483Z,15.40
2022-07-28T05:11:47.870Z,15.50
2022-07-28T05:14:17.661Z,15.70
2022-07-28T05:16:46.445Z,15.80
2022-07-28T05:19:15.456Z,16.00
2022-07-28T05:21:43.740Z,16.20
2022-07-28T05:24:13.844Z,16.50
2022-07-28T05:26:42.520Z,17.30
2022-07-28T05:29:10.849Z,18.20
2022-07-28T05:31:40.651Z,18.90
2022-07-28T05:34:08.951Z,19.30
2022-07-28T05:36:37.670Z,19.90
2022-07-28T05:39:06.127Z,20.60
2022-07-28T05:41:34.538Z,21.40
2022-07-28T05:44:03.527Z,22.10
2022-07-28T05:46:32.399Z,22.60
2022-07-28T05:49:03.352Z,23.20
2022-07-28T05:51:31.952Z,23.60
2022-07-28T05:54:00.276Z,23.80
2022-07-28T05:56:28.631Z,24.00
2022-07-28T05:58:56.971Z,24.10
2022-07-28T06:01:25.365Z,23.80
2022-07-28T06:04:10.063Z,23.60
2022-07-28T06:06:43.556Z,23.20
2022-07-28T06:09:12.833Z,22.90
2022-07-28T06:11:41.444Z,22.50
2022-07-28T06:14:09.734Z,22.30
2022-07-28T06:16:38.069Z,22.00
2022-07-28T06:19:06.455Z,21.80
2022-07-28T06:21:34.958Z,21.60
2022-07-28T06:24:05.301Z,21.40
2022-07-28T06:26:34.724Z,21.20
2022-07-28T06:29:03.108Z,21.00
2022-07-28T06:31:31.585Z,20.80
2022-07-28T06:33:59.939Z,20.60
2022-07-28T06:36:49.736Z,20.50
2022-07-28T06:39:31.021Z,20.50
2022-07-28T06:41:59.389Z,20.40
2022-07-28T06:44:48.231Z,20.30
2022-07-28T06:47:16.273Z,20.20
2022-07-28T06:49:44.675Z,20.10
2022-07-28T06:52:13.286Z,20.10
2022-07-28T06:54:45.628Z,20.20
2022-07-28T06:57:17.252Z,20.30
2022-07-28T06:59:46.596Z,20.30
2022-07-28T07:02:15.122Z,20.40
2022-07-28T07:04:44.848Z,20.50
2022-07-28T07:07:16.937Z,20.50
2022-07-28T07:09:47.156Z,20.60
2022-07-28T07:12:15.456Z,20.70
2022-07-28T07:14:43.779Z,20.80
2022-07-28T07:17:12.043Z,20.80
2022-07-28T07:19:40.380Z,20.90
2022-07-28T07:22:08.730Z,20.90
2022-07-28T07:24:37.962Z,21.00
2022-07-28T07:27:07.770Z,21.00
2022-07-28T07:29:36.208Z,21.10
2022-07-28T07:32:08.444Z,21.20
2022-07-28T07:34:40.437Z,21.30
2022-07-28T07:37:13.684Z,21.30
2022-07-28T07:39:42.877Z,21.40
2022-07-28T07:42:12.494Z,21.50
2022-07-28T07:44:40.763Z,21.60
2022-07-28T07:47:19.134Z,21.50
2022-07-28T07:49:47.582Z,21.50
2022-07-28T07:52:17.365Z,21.40
2022-07-28T07:54:46.781Z,21.50
2022-07-28T07:57:16.829Z,21.60
2022-07-28T07:59:47.963Z,21.70
2022-07-28T08:02:19.125Z,21.80
2022-07-28T08:04:47.854Z,22.00
2022-07-28T08:07:16.903Z,22.10
2022-07-28T08:09:45.380Z,22.20
2022-07-28T08:12:15.071Z,22.30
2022-07-28T08:14:43.432Z,22.20
2022-07-28T08:17:16.501Z,22.20
2022-07-28T08:19:44.900Z,22.10
2022-07-28T08:22:13.199Z,22.20
2022-07-28T08:24:41.712Z,22.10
2022-07-28T08:27:10.647Z,21.90
2022-07-28T08:29:41.099Z,21.80
2022-07-28T08:32:09.785Z,21.90
2022-07-28T08:34:38.172Z,21.90
2022-07-28T08:37:07.550Z,22.00
2022-07-28T08:39:37.096Z,22.10
2022-07-28T08:42:08.263Z,22.10
2022-07-28T08:44:53.545Z,22.20
2022-07-28T08:47:22.927Z,22.40
2022-07-28T08:49:53.203Z,22.70
2022-07-28T08:52:22.796Z,22.90
2022-07-28T08:54:52.560Z,22.90
2022-07-28T08:57:29.722Z,23.00
2022-07-28T08:59:59.963Z,23.20
2022-07-28T09:02:29.422Z,23.30
2022-07-28T09:05:00.538Z,23.20
2022-07-28T09:07:29.948Z,23.00
2022-07-28T09:10:02.464Z,22.80
2022-07-28T09:12:31.436Z,22.70
2022-07-28T09:15:03.604Z,22.80
2022-07-28T09:17:34.215Z,22.80
2022-07-28T09:20:07.439Z,22.80
2022-07-28T09:22:57.656Z,22.80
2022-07-28T09:25:26.760Z,23.10
2022-07-28T09:27:55.842Z,23.30
2022-07-28T09:30:34.254Z,23.40
2022-07-28T09:33:41.345Z,23.60
2022-07-28T09:36:15.966Z,23.50
2022-07-28T09:38:44.966Z,23.40
2022-07-28T09:41:13.996Z,23.30
2022-07-28T09:43:44.626Z,23.30
2022-07-28T09:46:17.208Z,23.20
2022-07-28T09:48:56.195Z,23.20
2022-07-28T09:51:27.615Z,23.10
2022-07-28T09:54:09.609Z,22.90
2022-07-28T09:56:38.911Z,22.80
2022-07-28T09:59:08.224Z,22.60
2022-07-28T10:01:54.023Z,22.50
2022-07-28T10:04:41.523Z,22.50
2022-07-28T10:07:14.236Z,22.60
2022-07-28T10:09:43.391Z,22.70
2022-07-28T10:12:21.054Z,22.70
2022-07-28T10:14:51.716Z,22.80
2022-07-28T10:17:30.555Z,22.80
2022-07-28T10:20:00.853Z,22.80
2022-07-28T10:22:33.897Z,22.70
2022-07-28T10:25:08.143Z,22.70
2022-07-28T10:27:38.264Z,22.80
2022-07-28T10:30:08.618Z,22.90
2022-07-28T10:32:44.659Z,22.90
2022-07-28T10:35:15.230Z,22.70
2022-07-28T10:37:52.971Z,22.60
2022-07-28T10:40:29.824Z,22.50
2022-07-28T10:42:58.663Z,22.50
2022-07-28T10:45:47.919Z,22.40
2022-07-28T10:48:20.484Z,22.30
2022-07-28T10:50:53.623Z,22.30
2022-07-28T10:53:34.093Z,22.20
2022-07-28T10:56:14.377Z,22.30
2022-07-28T10:58:51.153Z,22.40
2022-07-28T11:01:49.248Z,22.60
2022-07-28T11:05:01.969Z,22.70
2022-07-28T11:07:40.728Z,22.90
2022-07-28T11:10:19.496Z,23.00
2022-07-28T11:12:49.599Z,23.00
2022-07-28T11:15:38.271Z,23.20
2022-07-28T11:18:09.642Z,23.50
2022-07-28T11:21:11.027Z,23.70
2022-07-28T11:23:48.546Z,23.90
2022-07-28T11:26:38.631Z,24.00
2022-07-28T11:29:23.391Z,24.20
2022-07-28T11:32:03.639Z,24.20
2022-07-28T11:35:19.815Z,24.20
2022-07-28T11:38:14.979Z,24.40
2022-07-28T11:40:45.424Z,24.60
2022-07-28T11:43:38.947Z,24.90
2022-07-28T11:46:23.721Z,25.30
2022-07-28T11:49:25.932Z,25.50
2022-07-28T11:52:20.196Z,25.80
2022-07-28T11:54:56.702Z,25.90
2022-07-28T11:57:27.407Z,25.90
2022-07-28T12:00:02.873Z,25.90
2022-07-28T12:02:33.786Z,25.90
2022-07-28T12:05:10.985Z,25.90
2022-07-28T12:07:43.756Z,26.00
2022-07-28T12:10:55.660Z,25.80
2022-07-28T12:13:30.199Z,25.60
2022-07-28T12:15:59.968Z,25.50
2022-07-28T12:18:28.751Z,25.40
2022-07-28T12:21:03.069Z,25.40
2022-07-28T12:23:45.704Z,25.40
2022-07-28T12:26:31.762Z,25.10
2022-07-28T12:29:01.274Z,25.10
2022-07-28T12:31:33.133Z,25.20
2022-07-28T12:34:02.957Z,25.30
2022-07-28T12:36:31.747Z,25.40
2022-07-28T12:39:01.513Z,25.20
2022-07-28T12:41:35.658Z,25.00
2022-07-28T12:44:06.411Z,24.80
2022-07-28T12:46:34.831Z,24.60
2022-07-28T12:49:03.705Z,24.40
2022-07-28T12:51:34.161Z,24.40
2022-07-28T12:54:03.078Z,24.40
2022-07-28T12:56:45.798Z,24.50
2022-07-28T12:59:14.642Z,24.50
2022-07-28T13:01:48.641Z,24.50
2022-07-28T13:04:18.340Z,24.40
2022-07-28T13:06:57.462Z,24.40
2022-07-28T13:09:32.595Z,24.50
2022-07-28T13:12:03.002Z,24.60
2022-07-28T13:14:41.928Z,24.70
2022-07-28T13:17:10.305Z,24.80
2022-07-28T13:19:39.065Z,24.80
2022-07-28T13:22:09.362Z,24.90
2022-07-28T13:24:37.994Z,25.00
2022-07-28T13:27:09.011Z,25.00
2022-07-28T13:29:37.662Z,25.00
2022-07-28T13:32:06.711Z,25.00
2022-07-28T13:34:35.301Z,24.80
2022-07-28T13:37:03.618Z,24.70
2022-07-28T13:39:32.050Z,24.60
2022-07-28T13:42:00.879Z,24.50
2022-07-28T13:44:37.711Z,24.50
2022-07-28T13:47:07.238Z,24.60
2022-07-28T13:49:37.414Z,24.60
2022-07-28T13:52:12.841Z,24.50
2022-07-28T13:54:41.602Z,24.50
2022-07-28T13:57:10.395Z,24.40
2022-07-28T13:59:40.690Z,24.30
2022-07-28T14:02:15.686Z,24.20
2022-07-28T14:04:46.102Z,24.10
2022-07-28T14:07:21.304Z,23.90
2022-07-28T14:09:51.338Z,23.90
2022-07-28T14:12:20.178Z,24.00
2022-07-28T14:14:49.910Z,24.00
2022-07-28T14:20:13.204Z,24.20
2022-07-28T14:22:41.773Z,24.20
2022-07-28T14:25:11.825Z,24.30
2022-07-28T14:27:47.878Z,24.40
2022-07-28T14:30:17.755Z,24.40
2022-07-28T14:32:46.056Z,24.40
2022-07-28T14:35:14.500Z,24.40
2022-07-28T14:40:33.163Z,24.10
2022-07-28T14:43:07.910Z,24.10
2022-07-28T14:46:01.614Z,24.00
2022-07-28T14:48:27.951Z,24.00
2022-07-28T14:50:58.693Z,24.00
2022-07-28T14:53:27.861Z,24.00
2022-07-28T14:55:57.213Z,24.10
2022-07-28T14:58:25.821Z,24.10
2022-07-28T15:00:56.052Z,24.10
2022-07-28T15:03:26.880Z,24.20
2022-07-28T15:05:55.086Z,24.20
2022-07-28T15:08:28.003Z,24.20
2022-07-28T15:10:57.945Z,24.20
2022-07-28T15:13:26.607Z,24.30
2022-07-28T15:16:00.023Z,24.30
2022-07-28T15:18:28.802Z,24.20
2022-07-28T15:20:57.216Z,24.30
2022-07-28T15:23:25.527Z,24.40
2022-07-28T15:25:55.994Z,24.40
2022-07-28T15:28:24.341Z,24.40
2022-07-28T15:30:53.163Z,24.40
2022-07-28T15:33:25.415Z,24.40
2022-07-28T15:35:58.706Z,24.40
2022-07-28T15:38:29.525Z,24.40
2022-07-28T15:41:00.668Z,24.50
2022-07-28T15:43:32.682Z,24.40
2022-07-28T15:46:09.248Z,24.40
2022-07-28T15:48:39.795Z,24.40
2022-07-28T15:51:09.096Z,24.50
2022-07-28T15:53:38.235Z,24.50
2022-07-28T15:56:07.156Z,24.60
2022-07-28T15:58:36.534Z,24.60
2022-07-28T16:01:05.061Z,24.60
2022-07-28T16:03:33.474Z,24.60
2022-07-28T16:06:03.633Z,24.50
2022-07-28T16:08:32.188Z,24.50
2022-07-28T16:11:00.497Z,24.40
2022-07-28T16:13:37.017Z,24.30
2022-07-28T16:16:08.391Z,24.20
2022-07-28T16:18:38.413Z,24.20
2022-07-28T16:21:09.312Z,24.10
2022-07-28T16:23:37.669Z,24.00
2022-07-28T16:26:08.650Z,23.90
2022-07-28T16:28:37.213Z,23.90
2022-07-28T16:31:05.855Z,24.00
2022-07-28T16:33:34.362Z,24.00
2022-07-28T16:36:03.117Z,24.00
2022-07-28T16:38:32.815Z,24.00
2022-07-28T16:41:01.141Z,24.00
2022-07-28T16:43:29.703Z,24.00
2022-07-28T16:45:58.005Z,24.10
2022-07-28T16:48:26.416Z,24.10
2022-07-28T16:50:54.777Z,24.10
2022-07-28T16:53:23.000Z,24.10
2022-07-28T16:55:52.953Z,24.00
2022-07-28T16:58:22.243Z,24.00
2022-07-28T17:00:51.381Z,24.00
2022-07-28T17:03:19.683Z,24.00
2022-07-28T17:05:48.495Z,24.00
2022-07-28T17:08:16.746Z,24.00
2022-07-28T17:10:45.567Z,23.90
2022-07-28T17:13:16.251Z,23.90
2022-07-28T17:15:44.633Z,23.90
2022-07-28T17:18:13.247Z,23.90
2022-07-28T17:20:42.470Z,23.80
2022-07-28T17:23:10.961Z,23.80
2022-07-28T17:26:08.737Z,23.70
2022-07-28T17:28:29.849Z,23.70
2022-07-28T17:30:58.622Z,23.70
2022-07-28T17:33:28.029Z,23.60
2022-07-28T17:36:00.218Z,23.60
2022-07-28T17:38:32.971Z,23.50
2022-07-28T17:41:04.016Z,23.60
2022-07-28T17:43:35.032Z,23.50
2022-07-28T17:46:08.379Z,23.50
2022-07-28T17:48:39.084Z,23.40
2022-07-28T17:51:07.608Z,23.30
2022-07-28T17:53:39.183Z,23.30
2022-07-28T17:56:08.987Z,23.30
2022-07-28T17:58:40.100Z,23.30
2022-07-28T18:01:12.384Z,23.20
2022-07-28T18:03:56.619Z,23.20
2022-07-28T18:06:26.835Z,23.10
2022-07-28T18:08:55.141Z,23.10
2022-07-28T18:11:23.473Z,23.00
2022-07-28T18:14:04.172Z,23.00
2022-07-28T18:16:34.543Z,22.90
2022-07-28T18:19:03.156Z,22.90
2022-07-28T18:21:31.560Z,22.90
2022-07-28T18:24:03.953Z,22.80
2022-07-28T18:26:32.295Z,22.80
2022-07-28T18:29:02.514Z,22.70
2022-07-28T18:31:30.949Z,22.70
2022-07-28T18:33:59.365Z,22.50
2022-07-28T18:36:27.866Z,22.60
2022-07-28T18:38:56.215Z,22.60
2022-07-28T18:41:24.810Z,22.50
2022-07-28T18:43:53.312Z,22.50
2022-07-28T18:46:25.315Z,22.40
2022-07-28T18:48:57.294Z,22.40
2022-07-28T18:51:26.021Z,22.30
2022-07-28T18:53:54.615Z,22.30
2022-07-28T18:56:22.887Z,22.30
2022-07-28T18:58:54.150Z,22.20
2022-07-28T19:01:24.136Z,22.10
2022-07-28T19:03:52.586Z,22.10
2022-07-28T19:06:21.336Z,22.10
2022-07-28T19:08:49.699Z,21.90
2022-07-28T19:11:20.055Z,21.90
2022-07-28T19:13:48.640Z,21.90
2022-07-28T19:16:17.131Z,21.80
2022-07-28T19:18:46.995Z,21.80
2022-07-28T19:21:15.378Z,21.70
2022-07-28T19:23:44.210Z,21.70
2022-07-28T19:26:12.804Z,21.70
2022-07-28T19:28:42.435Z,21.60
2022-07-28T19:31:11.046Z,21.60
2022-07-28T19:33:42.901Z,21.50
2022-07-28T19:36:14.610Z,21.50
2022-07-28T19:38:44.161Z,21.40
2022-07-28T19:41:13.054Z,21.40
2022-07-28T19:43:44.487Z,21.30
2022-07-28T19:46:13.375Z,21.30
2022-07-28T19:48:42.017Z,21.30
2022-07-28T19:51:10.573Z,21.10
2022-07-28T19:53:40.278Z,21.10
2022-07-28T19:56:09.117Z,21.10
2022-07-28T19:58:37.772Z,21.10
2022-07-28T20:01:06.315Z,21.00
2022-07-28T20:04:02.148Z,21.00
2022-07-28T20:06:24.949Z,20.90
2022-07-28T20:08:56.875Z,20.90
2022-07-28T20:11:25.367Z,20.90
2022-07-28T20:13:53.760Z,20.80
2022-07-28T20:16:24.378Z,20.80
2022-07-28T20:18:53.106Z,20.70
2022-07-28T20:21:24.059Z,20.70
2022-07-28T20:23:55.647Z,20.60
2022-07-28T20:26:25.943Z,20.50
2022-07-28T20:28:54.955Z,20.60
2022-07-28T20:31:23.345Z,20.50
2022-07-28T20:33:52.880Z,20.50
2022-07-28T20:36:23.933Z,20.40
2022-07-28T20:38:57.828Z,20.40
2022-07-28T20:41:26.537Z,20.40
2022-07-28T20:44:26.184Z,20.30
2022-07-28T20:46:43.922Z,20.30
2022-07-28T20:49:12.470Z,20.20
2022-07-28T20:51:50.758Z,20.20
2022-07-28T20:54:22.380Z,20.10
2022-07-28T20:56:50.764Z,20.10
2022-07-28T20:59:19.412Z,20.10
2022-07-28T21:01:48.254Z,20.00
2022-07-28T21:04:17.228Z,20.00
2022-07-28T21:06:51.153Z,20.00
2022-07-28T21:09:25.510Z,19.90
2022-07-28T21:11:54.684Z,19.90
2022-07-28T21:14:23.167Z,19.90
2022-07-28T21:16:51.609Z,19.80
2022-07-28T21:19:23.432Z,19.80
2022-07-28T21:21:51.760Z,19.80
2022-07-28T21:24:20.127Z,19.70
2022-07-28T21:26:51.799Z,19.70
2022-07-28T21:32:04.190Z,19.60
2022-07-28T21:34:35.771Z,19.60
2022-07-28T21:37:04.684Z,19.60
2022-07-28T21:39:33.750Z,19.40
2022-07-28T21:42:07.560Z,19.60
2022-07-28T21:44:36.697Z,19.50
2022-07-28T21:47:05.734Z,19.50
2022-07-28T21:49:34.140Z,19.50
2022-07-28T21:52:02.798Z,19.40
2022-07-28T21:54:31.088Z,19.40
2022-07-28T21:56:59.434Z,19.30
2022-07-28T21:59:29.035Z,19.40
2022-07-28T22:01:57.404Z,19.40
2022-07-28T22:04:26.069Z,19.40
2022-07-28T22:06:54.525Z,19.40
2022-07-28T22:09:22.926Z,19.30
2022-07-28T22:11:51.325Z,19.30
2022-07-28T22:14:19.815Z,19.30
2022-07-28T22:16:49.607Z,19.30
2022-07-28T22:19:18.063Z,19.30
2022-07-28T22:21:47.897Z,19.20
2022-07-28T22:24:16.956Z,19.20
2022-07-28T22:26:45.538Z,19.20
2022-07-28T22:29:14.049Z,19.20
2022-07-28T22:31:42.594Z,19.10
2022-07-28T22:34:12.778Z,19.20
2022-07-28T22:36:41.226Z,19.20
2022-07-28T22:39:09.875Z,19.10
2022-07-28T22:41:38.220Z,19.10
2022-07-28T22:44:07.581Z,19.10
2022-07-28T22:46:36.142Z,19.00
2022-07-28T22:49:04.743Z,19.00
2022-07-28T22:51:34.955Z,19.00
2022-07-28T22:54:03.414Z,19.00
2022-07-28T22:56:37.324Z,19.00
2022-07-28T22:59:07.424Z,19.00
2022-07-28T23:01:36.666Z,19.00
2022-07-28T23:04:06.007Z,18.90
2022-07-28T23:06:37.450Z,18.90
2022-07-28T23:09:06.112Z,18.80
2022-07-28T23:11:34.414Z,18.90
2022-07-28T23:14:02.872Z,18.90
2022-07-28T23:16:31.684Z,18.90
2022-07-28T23:19:00.456Z,18.90
2022-07-28T23:21:29.007Z,18.90
2022-07-28T23:23:59.021Z,18.80
2022-07-28T23:26:27.597Z,18.90
2022-07-28T23:28:56.732Z,18.80
2022-07-28T23:31:25.305Z,18.80
2022-07-28T23:33:57.543Z,18.70
2022-07-28T23:36:27.742Z,18.80
2022-07-28T23:38:59.179Z,18.80
2022-07-28T23:41:28.432Z,18.80
2022-07-28T23:43:57.080Z,18.80
2022-07-28T23:46:25.974Z,18.80
2022-07-28T23:48:54.754Z,18.60
2022-07-28T23:51:41.111Z,18.80
2022-07-28T23:54:14.359Z,18.80
2022-07-28T23:56:43.498Z,18.80
2022-07-28T23:59:14.318Z,18.80
